Time;durP1;ratioP1;P1;durP2;ratioP2;P2;SDS_P1;SDS_P2;PMS_P1;PMS_P2;Temp;Humidity;BMP_temperature;BMP_pressure;BME280_temperature;BME280_humidity;BME280_pressure;Samples;Min_cycle;Max_cycle;Signal;HPM_P1;HPM_P2
2022/10/09 00:01:10;;;;;;;7.83;5.60;;;;;;;7.64;100.00;99000.34;5098815;28;20264;-73
2022/10/09 00:03:39;;;;;;;7.87;5.80;;;;;;;7.66;100.00;99002.94;5098724;28;20248;-72
2022/10/09 00:06:07;;;;;;;7.10;5.97;;;;;;;7.79;100.00;99004.94;5100472;28;20229;-72
2022/10/09 00:08:35;;;;;;;8.73;6.17;;;;;;;7.79;100.00;98998.84;5098895;28;20282;-72
2022/10/09 00:11:05;;;;;;;9.57;7.10;;;;;;;7.74;100.00;98991.16;5098843;28;20281;-73
2022/10/09 00:13:31;;;;;;;8.63;7.60;;;;;;;7.76;100.00;98994.56;5098827;28;20256;-72
2022/10/09 00:15:58;;;;;;;9.33;6.47;;;;;;;7.69;100.00;98989.63;5100567;28;20264;-73
2022/10/09 00:18:26;;;;;;;9.03;7.30;;;;;;;7.57;100.00;98987.53;5100509;28;20258;-73
2022/10/09 00:20:52;;;;;;;7.67;6.87;;;;;;;7.50;100.00;98992.22;5105554;28;20268;-72
2022/10/09 00:23:19;;;;;;;8.23;6.80;;;;;;;7.47;100.00;98989.72;5105306;28;20719;-73
2022/10/09 00:25:54;;;;;;;9.37;6.80;;;;;;;7.45;100.00;98993.31;5107116;28;20297;-73
2022/10/09 00:28:21;;;;;;;9.30;6.67;;;;;;;7.42;100.00;98993.47;5105367;28;20271;-73
2022/10/09 00:30:48;;;;;;;8.80;6.40;;;;;;;7.38;100.00;98991.88;5105337;28;20264;-73
2022/10/09 00:33:15;;;;;;;9.23;6.63;;;;;;;7.34;100.00;98982.44;5105364;28;20288;-73
2022/10/09 00:35:43;;;;;;;10.23;6.40;;;;;;;7.28;100.00;98988.78;5107137;28;20292;-73
2022/10/09 00:38:11;;;;;;;9.00;6.00;;;;;;;7.29;100.00;98987.03;5105381;28;20588;-73
2022/10/09 00:40:38;;;;;;;6.20;5.57;;;;;;;7.28;100.00;98980.91;5105285;28;20267;-73
2022/10/09 00:43:12;;;;;;;8.97;5.73;;;;;;;7.29;100.00;98976.50;5103916;28;20287;-73
2022/10/09 00:45:43;;;;;;;6.83;5.77;;;;;;;7.28;100.00;98974.81;5120603;28;20265;-73
2022/10/09 00:48:12;;;;;;;10.03;6.03;;;;;;;7.30;100.00;98978.22;5121921;28;20258;-73
2022/10/09 00:50:41;;;;;;;8.83;5.70;;;;;;;7.26;100.00;98971.38;5121913;28;20594;-73
2022/10/09 00:53:13;;;;;;;6.70;5.67;;;;;;;7.24;100.00;98974.06;5120778;28;20266;-73
2022/10/09 00:55:40;;;;;;;8.27;6.13;;;;;;;7.23;100.00;98968.88;5108206;28;20258;-72
2022/10/09 00:58:08;;;;;;;8.10;6.00;;;;;;;7.20;100.00;98976.06;5108223;28;20270;-72
2022/10/09 01:00:35;;;;;;;7.23;6.00;;;;;;;7.18;100.00;98966.44;5111183;28;20643;-72
2022/10/09 01:03:01;;;;;;;9.13;5.77;;;;;;;7.16;100.00;98967.44;5106508;28;20282;-72
2022/10/09 01:05:39;;;;;;;7.33;5.70;;;;;;;7.15;100.00;98967.50;5104894;28;20313;-71
2022/10/09 01:08:14;;;;;;;6.67;5.40;;;;;;;7.12;100.00;98960.59;5104941;28;20283;-72
2022/10/09 01:10:48;;;;;;;7.07;5.60;;;;;;;7.10;100.00;98961.56;5112359;28;20297;-71
2022/10/09 01:13:22;;;;;;;5.80;5.20;;;;;;;7.06;100.00;98965.25;5120214;28;20257;-72
2022/10/09 01:15:54;;;;;;;7.73;5.97;;;;;;;7.05;100.00;98955.66;5119753;28;20268;-72
2022/10/09 01:18:29;;;;;;;6.53;5.60;;;;;;;7.04;100.00;98960.06;5120984;28;20262;-73
2022/10/09 01:21:03;;;;;;;6.77;6.00;;;;;;;7.02;100.00;98961.88;5119617;28;20222;-72
2022/10/09 01:24:02;;;;;;;8.53;6.37;;;;;;;6.95;100.00;98960.44;5121388;28;20282;-72
2022/10/09 01:27:04;;;;;;;7.50;6.77;;;;;;;6.93;100.00;98951.78;5108820;28;20292;-73
2022/10/09 01:29:36;;;;;;;8.63;6.63;;;;;;;6.88;100.00;98953.72;5102252;28;20266;-72
2022/10/09 01:32:05;;;;;;;8.00;6.80;;;;;;;6.83;100.00;98945.19;5101556;28;20225;-73
2022/10/09 01:34:33;;;;;;;7.40;6.10;;;;;;;6.80;100.00;98947.09;5103370;28;20251;-72
2022/10/09 01:37:00;;;;;;;8.27;5.80;;;;;;;6.80;100.00;98949.72;5099732;28;20266;-72
2022/10/09 01:39:29;;;;;;;7.13;5.70;;;;;;;6.80;100.00;98940.06;5101555;28;20341;-72
2022/10/09 01:41:57;;;;;;;8.37;5.97;;;;;;;6.87;100.00;98936.25;5101417;28;20258;-72
2022/10/09 01:44:26;;;;;;;7.27;6.00;;;;;;;6.86;100.00;98942.44;5103015;28;20279;-72
2022/10/09 01:46:54;;;;;;;9.63;6.17;;;;;;;6.82;100.00;98932.97;5101376;28;20601;-72
2022/10/09 01:49:40;;;;;;;7.13;6.43;;;;;;;6.81;100.00;98935.66;5101358;28;20634;-72
2022/10/09 01:52:18;;;;;;;6.97;6.00;;;;;;;6.78;100.00;98933.16;5102140;28;20229;-71
2022/10/09 01:54:58;;;;;;;7.13;5.73;;;;;;;6.78;100.00;98930.53;5104285;28;20245;-73
2022/10/09 01:57:31;;;;;;;6.33;5.53;;;;;;;6.74;100.00;98935.06;5107303;28;20259;-72
2022/10/09 02:00:00;;;;;;;8.03;6.60;;;;;;;6.69;100.00;98926.50;5101766;28;20262;-71
2022/10/09 02:02:28;;;;;;;8.80;6.27;;;;;;;6.66;100.00;98918.75;5099707;28;20263;-72
2022/10/09 02:04:55;;;;;;;7.17;6.43;;;;;;;6.66;100.00;98920.53;5100923;28;20278;-72
2022/10/09 02:07:24;;;;;;;7.27;6.47;;;;;;;6.69;100.00;98912.50;5100954;28;20599;-72
2022/10/09 02:09:51;;;;;;;6.13;5.53;;;;;;;6.66;100.00;98908.25;5102037;28;20225;-73
2022/10/09 02:12:20;;;;;;;9.57;6.10;;;;;;;6.69;100.00;98909.88;5101274;28;20254;-72
2022/10/09 02:14:47;;;;;;;9.70;6.70;;;;;;;6.65;100.00;98909.16;5108537;28;20232;-72
2022/10/09 02:17:18;;;;;;;8.47;6.73;;;;;;;6.62;100.00;98909.31;5100834;28;20259;-72
2022/10/09 02:19:49;;;;;;;7.80;7.00;;;;;;;6.59;100.00;98898.91;5102478;28;20591;-72
2022/10/09 02:22:20;;;;;;;8.07;7.13;;;;;;;6.58;100.00;98897.19;5100649;28;20266;-71
2022/10/09 02:24:47;;;;;;;8.23;6.77;;;;;;;6.57;100.00;98903.38;5100497;28;20278;-71
2022/10/09 02:27:14;;;;;;;9.43;7.47;;;;;;;6.58;100.00;98902.47;5098704;28;20264;-72
2022/10/09 02:29:42;;;;;;;9.60;7.40;;;;;;;6.60;100.00;98895.34;5102280;28;20625;-72
2022/10/09 02:32:10;;;;;;;8.30;6.90;;;;;;;6.62;100.00;98892.69;5100426;28;20266;-72
2022/10/09 02:34:36;;;;;;;6.70;5.97;;;;;;;6.64;100.00;98891.69;5100414;28;20262;-71
2022/10/09 02:37:04;;;;;;;8.53;5.73;;;;;;;6.63;100.00;98884.75;5100337;28;20261;-71
2022/10/09 02:39:31;;;;;;;7.97;6.47;;;;;;;6.69;100.00;98888.88;5102146;28;20261;-71
2022/10/09 02:41:58;;;;;;;10.03;7.00;;;;;;;6.62;100.00;98883.03;5099841;28;20269;-71
2022/10/09 02:44:24;;;;;;;7.23;6.10;;;;;;;6.57;100.00;98878.88;5100187;28;20280;-71
2022/10/09 02:46:51;;;;;;;8.37;6.47;;;;;;;6.51;100.00;98884.38;5100296;28;20231;-71
2022/10/09 02:49:18;;;;;;;7.83;7.03;;;;;;;6.47;100.00;98883.66;5101866;28;20270;-72
2022/10/09 02:51:44;;;;;;;8.60;6.37;;;;;;;6.49;100.00;98886.22;5100214;28;20261;-71
2022/10/09 02:54:12;;;;;;;6.93;6.23;;;;;;;6.48;100.00;98884.53;5098189;28;20282;-71
2022/10/09 02:56:39;;;;;;;8.60;7.00;;;;;;;6.45;100.00;98880.25;5102728;28;20264;-72
2022/10/09 02:59:06;;;;;;;8.80;6.93;;;;;;;6.43;100.00;98882.09;5101837;28;20264;-71
2022/10/09 03:01:33;;;;;;;7.83;6.90;;;;;;;6.39;100.00;98875.25;5099950;28;20269;-71
2022/10/09 03:04:00;;;;;;;7.07;6.30;;;;;;;6.42;100.00;98879.53;5099919;28;20278;-72
2022/10/09 03:06:28;;;;;;;8.17;6.30;;;;;;;6.43;100.00;98886.47;5099910;28;20262;-72
2022/10/09 03:08:56;;;;;;;6.60;5.90;;;;;;;6.39;100.00;98870.00;5101599;28;20291;-72
2022/10/09 03:11:25;;;;;;;9.10;6.23;;;;;;;6.38;100.00;98878.78;5100062;28;20258;-72
2022/10/09 03:13:53;;;;;;;8.40;5.80;;;;;;;6.34;100.00;98882.44;5099723;28;20258;-72
2022/10/09 03:16:21;;;;;;;6.27;5.17;;;;;;;6.31;100.00;98874.72;5099709;28;20573;-72
2022/10/09 03:18:48;;;;;;;7.57;5.90;;;;;;;6.30;100.00;98883.47;5101310;28;20284;-71
2022/10/09 03:21:17;;;;;;;8.77;6.17;;;;;;;6.28;100.00;98877.44;5097980;28;20259;-71
2022/10/09 03:23:44;;;;;;;7.57;6.00;;;;;;;6.20;100.00;98883.91;5099452;28;20271;-71
2022/10/09 03:26:14;;;;;;;8.53;6.10;;;;;;;6.24;100.00;98878.47;5099482;28;20275;-71
2022/10/09 03:28:45;;;;;;;7.57;5.30;;;;;;;6.21;100.00;98885.63;5106849;28;20271;-71
2022/10/09 03:31:12;;;;;;;7.33;6.50;;;;;;;6.24;100.00;98886.34;5099469;28;20224;-71
2022/10/09 03:33:38;;;;;;;6.33;5.70;;;;;;;6.22;100.00;98882.09;5099307;28;20226;-71
2022/10/09 03:36:06;;;;;;;6.83;5.90;;;;;;;6.20;100.00;98879.53;5099304;28;20261;-71
2022/10/09 03:38:32;;;;;;;6.60;5.77;;;;;;;6.12;100.00;98881.59;5100981;28;20253;-71
2022/10/09 03:41:00;;;;;;;8.97;6.87;;;;;;;6.07;100.00;98882.69;5099289;28;20262;-71
2022/10/09 03:43:27;;;;;;;7.00;5.87;;;;;;;6.08;100.00;98880.03;5099176;28;20261;-71
2022/10/09 03:45:55;;;;;;;6.87;6.00;;;;;;;6.13;100.00;98877.19;5097438;28;20530;-70
2022/10/09 03:48:22;;;;;;;7.67;6.10;;;;;;;6.11;100.00;98879.03;5100851;28;20296;-71
2022/10/09 03:50:49;;;;;;;7.43;6.60;;;;;;;6.11;100.00;98877.25;5099033;28;20255;-70
2022/10/09 03:53:16;;;;;;;6.87;6.17;;;;;;;6.13;100.00;98872.81;5098319;28;20266;-71
2022/10/09 03:55:43;;;;;;;7.87;5.97;;;;;;;6.15;100.00;98889.34;5110007;28;20541;-71
2022/10/09 03:58:10;;;;;;;7.93;6.13;;;;;;;6.08;100.00;98874.78;5100202;28;20275;-71
2022/10/09 04:00:37;;;;;;;7.03;6.33;;;;;;;6.06;100.00;98876.63;5099061;28;20254;-69
2022/10/09 04:03:05;;;;;;;7.93;6.53;;;;;;;6.06;100.00;98881.84;5098910;28;20274;-69
2022/10/09 04:05:33;;;;;;;7.33;6.47;;;;;;;6.11;100.00;98885.13;5099010;28;20287;-70
2022/10/09 04:08:00;;;;;;;6.87;6.13;;;;;;;6.05;100.00;98880.13;5100798;28;20357;-69
2022/10/09 04:10:26;;;;;;;9.43;7.37;;;;;;;6.05;100.00;98874.88;5098859;28;20237;-70
2022/10/09 04:12:53;;;;;;;8.50;6.90;;;;;;;6.12;100.00;98886.84;5097186;28;20266;-69
2022/10/09 04:15:20;;;;;;;8.03;6.23;;;;;;;6.08;100.00;98880.03;5098673;28;20257;-69
2022/10/09 04:17:46;;;;;;;9.20;7.03;;;;;;;6.02;100.00;98890.75;5100463;28;20280;-69
2022/10/09 04:20:14;;;;;;;10.50;6.93;;;;;;;6.11;100.00;98885.13;5098755;28;20264;-70
2022/10/09 04:22:41;;;;;;;8.80;7.63;;;;;;;6.19;100.00;98887.47;5098694;28;20262;-69
2022/10/09 04:25:08;;;;;;;9.80;7.03;;;;;;;6.23;100.00;98874.16;5098564;28;20285;-69
2022/10/09 04:27:35;;;;;;;10.03;6.23;;;;;;;6.14;100.00;98873.66;5100358;28;20261;-69
2022/10/09 04:30:01;;;;;;;8.30;6.37;;;;;;;6.02;100.00;98885.50;5098657;28;20314;-69
2022/10/09 04:32:28;;;;;;;9.17;6.13;;;;;;;5.97;100.00;98876.09;5098582;28;20598;-69
2022/10/09 04:34:54;;;;;;;8.13;6.60;;;;;;;5.95;100.00;98883.19;5098603;28;20265;-68
2022/10/09 04:37:22;;;;;;;8.83;6.60;;;;;;;5.89;100.00;98878.16;5097883;28;20288;-69
2022/10/09 04:39:49;;;;;;;7.97;6.33;;;;;;;5.90;100.00;98875.50;5098833;28;20645;-68
2022/10/09 04:42:16;;;;;;;8.57;5.97;;;;;;;5.87;100.00;98872.97;5098585;28;20265;-70
2022/10/09 04:44:42;;;;;;;7.27;6.50;;;;;;;5.81;100.00;98881.06;5102245;28;20243;-69
2022/10/09 04:47:09;;;;;;;7.13;6.30;;;;;;;5.84;100.00;98875.72;5099350;28;20269;-70
2022/10/09 04:49:35;;;;;;;8.13;5.77;;;;;;;5.82;100.00;98877.56;5099258;28;20262;-70
2022/10/09 04:52:02;;;;;;;8.00;5.63;;;;;;;5.81;100.00;98881.06;5098762;28;20288;-65
2022/10/09 04:54:30;;;;;;;8.07;5.67;;;;;;;5.79;100.00;98880.25;5098927;28;20257;-65
2022/10/09 04:56:57;;;;;;;9.37;5.73;;;;;;;5.75;100.00;98870.78;5100321;28;20273;-63
2022/10/09 04:59:23;;;;;;;8.03;5.20;;;;;;;5.72;100.00;98876.16;5099500;28;20263;-63
2022/10/09 05:01:50;;;;;;;9.03;5.80;;;;;;;5.74;100.00;98874.31;5098254;28;20305;-63
2022/10/09 05:04:16;;;;;;;7.63;5.90;;;;;;;5.77;100.00;98868.97;5097820;28;20281;-64
2022/10/09 05:06:43;;;;;;;8.10;5.70;;;;;;;5.76;100.00;98876.91;5101966;28;20259;-65
2022/10/09 05:09:10;;;;;;;6.97;5.83;;;;;;;5.77;100.00;98874.22;5103621;28;20262;-64
2022/10/09 05:11:38;;;;;;;8.13;6.60;;;;;;;5.81;100.00;98875.00;5102043;28;20265;-64
2022/10/09 05:14:04;;;;;;;8.20;6.30;;;;;;;5.81;100.00;98875.81;5101972;28;20271;-64
2022/10/09 05:16:31;;;;;;;10.67;6.80;;;;;;;5.78;100.00;98880.31;5101887;28;20234;-64
2022/10/09 05:18:59;;;;;;;8.33;6.57;;;;;;;5.73;100.00;98872.63;5117046;28;20273;-63
2022/10/09 05:21:26;;;;;;;9.10;6.43;;;;;;;5.76;100.00;98874.28;5118656;28;20261;-65
2022/10/09 05:23:54;;;;;;;8.50;6.30;;;;;;;5.71;100.00;98871.84;5118529;28;20226;-65
2022/10/09 05:26:23;;;;;;;9.50;6.97;;;;;;;5.70;100.00;98878.00;5118437;28;20281;-66
2022/10/09 05:28:51;;;;;;;9.20;6.63;;;;;;;5.71;100.00;98874.47;5116921;28;20258;-66
2022/10/09 05:31:20;;;;;;;7.27;6.07;;;;;;;5.69;100.00;98871.03;5116820;28;20265;-66
2022/10/09 05:33:47;;;;;;;8.50;6.27;;;;;;;5.77;100.00;98874.22;5118307;28;20266;-63
2022/10/09 05:36:14;;;;;;;8.03;6.33;;;;;;;5.86;100.00;98866.03;5118154;28;20257;-62
2022/10/09 05:38:41;;;;;;;8.37;6.47;;;;;;;5.85;100.00;98864.31;5116920;28;20280;-62
2022/10/09 05:41:10;;;;;;;9.77;6.53;;;;;;;5.91;100.00;98869.31;5118287;28;20261;-62
2022/10/09 05:43:38;;;;;;;11.40;7.00;;;;;;;5.85;100.00;98861.69;5118190;28;20262;-62
2022/10/09 05:46:08;;;;;;;8.43;6.10;;;;;;;5.77;100.00;98874.22;5117707;28;20284;-63
2022/10/09 05:48:35;;;;;;;10.20;6.50;;;;;;;5.72;100.00;98870.91;5117218;28;20264;-63
2022/10/09 05:51:13;;;;;;;8.83;6.37;;;;;;;5.72;100.00;98876.16;5118048;28;20302;-62
2022/10/09 05:53:41;;;;;;;8.43;5.90;;;;;;;5.73;100.00;98872.63;5118012;28;20679;-62
2022/10/09 05:56:15;;;;;;;7.63;6.00;;;;;;;5.70;100.00;98878.00;5103508;28;20250;-63
2022/10/09 05:58:42;;;;;;;9.50;5.97;;;;;;;5.69;100.00;98878.88;5102892;28;20582;-63
2022/10/09 06:01:10;;;;;;;7.33;5.87;;;;;;;5.65;100.00;98873.81;5101215;28;20632;-62
2022/10/09 06:03:38;;;;;;;7.83;6.07;;;;;;;5.66;100.00;98868.53;5101021;28;20265;-61
2022/10/09 06:06:06;;;;;;;6.80;6.10;;;;;;;5.65;100.00;98872.06;5102683;28;20317;-61
2022/10/09 06:08:34;;;;;;;6.87;5.10;;;;;;;5.66;100.00;98884.25;5100781;28;20246;-62
2022/10/09 06:11:08;;;;;;;9.03;6.03;;;;;;;5.70;100.00;98882.38;5100890;28;20596;-62
2022/10/09 06:13:35;;;;;;;7.00;5.50;;;;;;;5.73;100.00;98872.63;5101013;28;20257;-62
2022/10/09 06:16:02;;;;;;;9.27;5.90;;;;;;;5.80;100.00;98873.28;5101568;28;20264;-63
2022/10/09 06:18:30;;;;;;;10.93;6.50;;;;;;;5.99;100.00;98869.88;5100807;28;20267;-63
2022/10/09 06:20:58;;;;;;;10.30;6.50;;;;;;;6.09;100.00;98867.72;5100415;28;20269;-63
2022/10/09 06:23:25;;;;;;;9.93;6.30;;;;;;;6.16;100.00;98877.94;5099633;28;20266;-63
2022/10/09 06:25:53;;;;;;;7.93;6.43;;;;;;;6.22;100.00;98874.22;5101910;28;20325;-63
2022/10/09 06:28:19;;;;;;;10.97;6.37;;;;;;;6.21;100.00;98868.13;5100525;28;20488;-63
2022/10/09 06:30:46;;;;;;;11.80;7.03;;;;;;;6.32;100.00;98875.53;5100526;28;20527;-63
2022/10/09 06:33:13;;;;;;;10.83;7.37;;;;;;;6.40;100.00;98871.69;5100584;28;20533;-63
2022/10/09 06:35:41;;;;;;;10.37;7.03;;;;;;;6.48;100.00;98877.47;5115438;28;20254;-62
2022/10/09 06:38:08;;;;;;;11.30;7.57;;;;;;;6.57;100.00;98869.25;5116491;28;20254;-62
2022/10/09 06:40:35;;;;;;;10.53;7.53;;;;;;;6.58;100.00;98870.94;5114073;28;20298;-62
2022/10/09 06:43:02;;;;;;;10.30;7.10;;;;;;;6.71;100.00;98877.38;5101249;28;20233;-62
2022/10/09 06:45:29;;;;;;;8.70;6.33;;;;;;;6.71;100.00;98873.94;5100444;28;20286;-62
2022/10/09 06:47:55;;;;;;;12.70;8.17;;;;;;;6.78;100.00;98870.94;5097015;28;20230;-63
2022/10/09 06:50:22;;;;;;;9.90;6.97;;;;;;;6.77;100.00;98871.88;5098696;28;20311;-63
2022/10/09 06:52:50;;;;;;;9.67;6.93;;;;;;;6.84;100.00;98878.56;5098755;28;20309;-63
2022/10/09 06:55:17;;;;;;;8.53;6.80;;;;;;;6.88;100.00;98877.53;5102473;28;20251;-63
2022/10/09 06:57:43;;;;;;;10.73;7.37;;;;;;;6.93;100.00;98872.94;5098685;28;20258;-64
2022/10/09 07:00:12;;;;;;;10.17;6.83;;;;;;;6.98;100.00;98878.84;5098620;28;20262;-65
2022/10/09 07:02:39;;;;;;;11.17;7.70;;;;;;;7.04;100.00;98886.47;5098655;28;20262;-65
2022/10/09 07:05:07;;;;;;;10.83;7.40;;;;;;;7.14;100.00;98887.75;5100181;28;20245;-66
2022/10/09 07:07:34;;;;;;;11.70;7.23;;;;;;;7.20;100.00;98884.88;5098431;28;20285;-68
2022/10/09 07:10:01;;;;;;;10.53;6.97;;;;;;;7.25;100.00;98890.78;5098400;28;20602;-68
2022/10/09 07:12:28;;;;;;;12.57;7.00;;;;;;;7.30;100.00;98888.81;5098397;28;20266;-68
2022/10/09 07:14:55;;;;;;;9.73;7.03;;;;;;;7.38;100.00;98887.56;5112568;28;20257;-67
2022/10/09 07:17:21;;;;;;;16.93;7.60;;;;;;;7.51;100.00;98887.84;5114938;28;20268;-67
2022/10/09 07:19:48;;;;;;;12.27;7.07;;;;;;;7.59;100.00;98883.13;5114972;28;20262;-67
2022/10/09 07:22:15;;;;;;;10.70;7.33;;;;;;;7.66;100.00;98888.00;5114846;28;20262;-67
2022/10/09 07:24:42;;;;;;;10.70;7.80;;;;;;;7.74;100.00;98885.03;5112768;28;20261;-68
2022/10/09 07:27:10;;;;;;;9.83;7.43;;;;;;;7.76;100.00;98884.03;5114153;28;20356;-68
2022/10/09 07:29:36;;;;;;;9.93;7.90;;;;;;;7.86;100.00;98884.47;5114070;28;20286;-68
2022/10/09 07:32:03;;;;;;;9.93;6.63;;;;;;;7.89;100.00;98889.59;5114683;28;20268;-69
2022/10/09 07:34:29;;;;;;;9.53;6.57;;;;;;;8.01;100.00;98895.13;5112905;28;20262;-69
2022/10/09 07:36:56;;;;;;;11.70;6.93;;;;;;;8.09;100.00;98892.16;5114770;28;20601;-67
2022/10/09 07:39:23;;;;;;;9.53;6.07;;;;;;;8.12;100.00;98889.34;5114672;28;20231;-68
2022/10/09 07:41:51;;;;;;;9.03;5.87;;;;;;;8.23;100.00;98885.34;5112657;28;20283;-69
2022/10/09 07:44:19;;;;;;;9.33;6.20;;;;;;;8.32;100.00;98889.31;5112750;28;20279;-65
2022/10/09 07:46:46;;;;;;;8.97;5.87;;;;;;;8.40;100.00;98889.78;5114464;28;20291;-65
2022/10/09 07:49:12;;;;;;;7.30;5.93;;;;;;;8.44;100.00;98880.81;5114524;28;20499;-66
2022/10/09 07:51:39;;;;;;;7.40;5.57;;;;;;;8.40;100.00;98887.16;5114408;28;20231;-66
2022/10/09 07:54:06;;;;;;;6.97;5.83;;;;;;;8.45;100.00;98888.63;5112493;28;20264;-68
2022/10/09 07:56:34;;;;;;;9.80;6.37;;;;;;;8.56;100.00;98885.47;5099874;28;20254;-68
2022/10/09 07:59:02;;;;;;;9.37;6.23;;;;;;;8.76;100.00;98880.06;5097686;28;20268;-69
2022/10/09 08:01:32;;;;;;;7.57;5.73;;;;;;;8.81;100.00;98880.69;5097548;28;20225;-67
2022/10/09 08:03:59;;;;;;;8.23;5.93;;;;;;;8.91;100.00;98884.56;5099171;28;20281;-67
2022/10/09 08:06:26;;;;;;;8.77;5.70;;;;;;;9.05;100.00;98882.09;5097512;28;20246;-68
2022/10/09 08:08:54;;;;;;;9.27;5.40;;;;;;;9.14;100.00;98881.59;5095986;28;20283;-67
2022/10/09 08:11:22;;;;;;;8.70;5.53;;;;;;;9.25;100.00;98880.09;5097485;28;20262;-69
2022/10/09 08:13:50;;;;;;;6.63;5.83;;;;;;;9.35;100.00;98880.47;5099139;28;20265;-69
2022/10/09 08:16:17;;;;;;;8.23;5.57;;;;;;;9.47;100.00;98882.47;5097341;28;20279;-69
2022/10/09 08:18:46;;;;;;;6.97;5.00;;;;;;;9.55;100.00;98880.28;5097336;28;20546;-69
2022/10/09 08:21:14;;;;;;;7.80;5.37;;;;;;;9.65;100.00;98889.41;5097361;28;20269;-68
2022/10/09 08:23:41;;;;;;;6.90;5.70;;;;;;;9.73;100.00;98881.94;5098965;28;20227;-69
2022/10/09 08:26:13;;;;;;;7.30;5.57;;;;;;;9.83;100.00;98886.63;5097241;28;20605;-69
2022/10/09 08:28:40;;;;;;;6.83;5.47;;;;;;;9.93;100.00;98879.94;5106642;28;20234;-69
2022/10/09 08:31:10;;;;;;;6.40;4.90;;;;;;;9.99;100.00;98869.03;5102163;28;20265;-69
2022/10/09 08:33:37;;;;;;;6.37;5.23;;;;;;;10.07;100.00;98868.63;5097530;28;20338;-71
2022/10/09 08:36:08;;;;;;;7.03;4.80;;;;;;;10.16;100.00;98866.31;5097212;28;20225;-71
2022/10/09 08:38:36;;;;;;;6.37;4.97;;;;;;;10.24;100.00;98868.53;5097395;28;20283;-70
2022/10/09 08:41:06;;;;;;;6.40;5.10;;;;;;;10.25;100.00;98864.94;5101269;28;20262;-71
2022/10/09 08:43:35;;;;;;;5.70;4.50;;;;;;;10.33;100.00;98866.22;5116555;28;20285;-71
2022/10/09 08:46:07;;;;;;;8.13;5.37;;;;;;;10.44;100.00;98862.97;5117914;28;20619;-69
2022/10/09 08:48:40;;;;;;;6.50;4.97;;;;;;;10.56;100.00;98875.47;5117903;28;20250;-71
2022/10/09 08:51:15;;;;;;;6.37;5.37;;;;;;;10.68;100.00;98866.84;5115974;28;20645;-69
2022/10/09 08:53:47;;;;;;;8.10;5.27;;;;;;;10.78;100.00;98868.03;5101017;28;20663;-69
2022/10/09 08:56:15;;;;;;;6.10;4.60;;;;;;;10.89;100.00;98862.97;5102517;28;20260;-69
2022/10/09 08:58:43;;;;;;;6.17;4.63;;;;;;;10.98;100.00;98857.13;5100920;28;20260;-71
2022/10/09 09:01:18;;;;;;;11.13;4.97;;;;;;;11.14;100.00;98852.63;5100660;28;20618;-69
2022/10/09 09:03:59;;;;;;;6.63;4.40;;;;;;;11.27;100.00;98857.09;5100824;28;20262;-69
2022/10/09 09:06:38;;;;;;;7.73;4.63;;;;;;;11.40;100.00;98857.19;5100699;28;20280;-69
2022/10/09 09:09:15;;;;;;;4.93;4.17;;;;;;;11.54;100.00;98846.59;5115838;28;20272;-69
2022/10/09 09:11:50;;;;;;;6.03;4.30;;;;;;;11.66;100.00;98845.88;5117423;28;20221;-70
2022/10/09 09:14:29;;;;;;;5.93;4.20;;;;;;;11.71;100.00;98838.50;5117346;28;20224;-70
2022/10/09 09:17:04;;;;;;;6.33;5.20;;;;;;;11.77;100.00;98830.16;5115643;28;20251;-70
2022/10/09 09:19:40;;;;;;;5.13;3.87;;;;;;;11.92;100.00;98837.16;5117079;28;20572;-71
2022/10/09 09:22:13;;;;;;;7.67;4.17;;;;;;;11.99;100.00;98838.47;5117143;28;20604;-70
2022/10/09 09:24:45;;;;;;;6.03;3.30;;;;;;;12.11;100.00;98830.56;5115276;28;20262;-70
2022/10/09 09:27:14;;;;;;;5.50;3.33;;;;;;;12.32;100.00;98831.84;5115298;28;20284;-70
2022/10/09 09:29:46;;;;;;;4.50;2.93;;;;;;;12.45;100.00;98831.88;5117299;28;20254;-69
2022/10/09 09:32:20;;;;;;;5.10;3.17;;;;;;;12.58;100.00;98825.66;5116984;28;20260;-70
2022/10/09 09:34:47;;;;;;;2.80;2.60;;;;;;;12.69;100.00;98825.81;5116633;28;20294;-70
2022/10/09 09:37:16;;;;;;;4.73;3.20;;;;;;;12.78;100.00;98825.19;5116983;28;20261;-71
2022/10/09 09:39:43;;;;;;;4.93;2.90;;;;;;;12.79;100.00;98821.59;5116967;28;20259;-71
2022/10/09 09:42:16;;;;;;;4.43;2.93;;;;;;;12.88;100.00;98817.47;5115837;28;20585;-71
2022/10/09 09:44:49;;;;;;;2.63;2.33;;;;;;;13.04;100.00;98815.50;5116692;28;20265;-70
2022/10/09 09:47:22;;;;;;;3.77;2.90;;;;;;;13.32;100.00;98805.53;5116717;28;20363;-71
2022/10/09 09:49:57;;;;;;;4.40;2.63;;;;;;;13.39;100.00;98800.66;5116483;28;20285;-71
2022/10/09 09:52:28;;;;;;;3.17;2.40;;;;;;;13.51;100.00;98799.81;5114764;28;20258;-70
2022/10/09 09:54:57;;;;;;;3.20;2.50;;;;;;;13.54;100.00;98800.44;5110771;28;20284;-70
2022/10/09 09:57:31;;;;;;;4.37;2.10;;;;;;;13.57;100.00;98794.88;5099733;28;20230;-70
2022/10/09 10:00:08;;;;;;;4.00;2.30;;;;;;;13.70;100.00;98790.41;5101553;28;20265;-70
2022/10/09 10:02:35;;;;;;;3.30;2.40;;;;;;;13.74;100.00;98786.56;5099834;28;20361;-70
2022/10/09 10:05:15;;;;;;;4.53;2.47;;;;;;;13.93;100.00;98775.47;5099741;28;20285;-70
2022/10/09 10:07:43;;;;;;;6.00;2.67;;;;;;;14.03;100.00;98773.84;5100280;28;20288;-70
2022/10/09 10:10:16;;;;;;;3.57;2.00;;;;;;;14.14;97.11;98771.25;5100100;28;20260;-70
2022/10/09 10:12:45;;;;;;;2.87;1.93;;;;;;;14.21;92.57;98765.41;5099433;28;20275;-70
2022/10/09 10:15:20;;;;;;;2.47;2.27;;;;;;;14.40;89.42;98760.41;5098898;28;20266;-71
2022/10/09 10:17:48;;;;;;;3.37;2.27;;;;;;;14.44;85.12;98740.63;5101236;28;20257;-71
2022/10/09 10:20:16;;;;;;;4.20;1.80;;;;;;;14.53;80.54;98741.72;5098196;28;20306;-71
2022/10/09 10:22:52;;;;;;;2.80;1.93;;;;;;;14.58;75.75;98721.78;5099103;28;20353;-71
2022/10/09 10:25:21;;;;;;;3.63;1.80;;;;;;;14.69;75.78;98719.16;5099186;28;20236;-71
2022/10/09 10:27:52;;;;;;;2.80;1.87;;;;;;;14.81;76.60;98722.69;5114453;28;20275;-71
2022/10/09 10:30:19;;;;;;;2.73;1.80;;;;;;;14.91;77.83;98719.19;5115851;28;20260;-71
2022/10/09 10:32:55;;;;;;;2.20;1.63;;;;;;;15.06;75.84;98711.84;5115249;28;20659;-71
2022/10/09 10:35:26;;;;;;;2.33;1.80;;;;;;;15.06;74.82;98711.84;5113385;28;20224;-71
2022/10/09 10:38:03;;;;;;;2.50;1.60;;;;;;;15.10;72.21;98692.84;5098453;28;20225;-71
2022/10/09 10:40:33;;;;;;;1.87;1.60;;;;;;;15.20;74.65;98706.28;5098118;28;20311;-71
2022/10/09 10:43:14;;;;;;;3.10;1.90;;;;;;;15.32;71.10;98687.56;5098002;28;20253;-72
2022/10/09 10:45:53;;;;;;;2.60;1.70;;;;;;;15.38;72.01;98692.41;5098111;28;20633;-71
2022/10/09 10:48:24;;;;;;;3.10;1.63;;;;;;;15.44;71.95;98681.25;5097067;28;20261;-72
2022/10/09 10:50:59;;;;;;;2.70;1.60;;;;;;;15.38;71.29;98681.75;5098768;28;20261;-72
2022/10/09 10:53:41;;;;;;;3.00;1.53;;;;;;;15.45;69.92;98676.78;5114918;28;20267;-71
2022/10/09 10:56:15;;;;;;;3.57;1.40;;;;;;;15.54;71.26;98684.88;5104919;28;20249;-71
2022/10/09 10:58:54;;;;;;;3.10;1.50;;;;;;;15.62;68.80;98678.91;5109006;28;20260;-71
2022/10/09 11:01:30;;;;;;;5.20;1.90;;;;;;;15.77;70.94;98678.50;5114966;28;20607;-71
2022/10/09 11:04:27;;;;;;;3.13;1.50;;;;;;;15.83;67.47;98669.19;5115200;28;20267;-71
2022/10/09 11:07:03;;;;;;;2.33;1.30;;;;;;;15.76;66.68;98673.34;5113061;28;20325;-71
2022/10/09 11:09:40;;;;;;;3.20;1.40;;;;;;;15.80;68.33;98664.09;5115095;28;20270;-72
2022/10/09 11:12:12;;;;;;;2.50;1.37;;;;;;;15.78;66.95;98663.38;5115113;28;20290;-72
2022/10/09 11:14:48;;;;;;;2.60;1.60;;;;;;;15.74;65.95;98652.13;5111743;28;20268;-71
2022/10/09 11:17:25;;;;;;;2.80;1.50;;;;;;;15.84;65.63;98646.88;5098265;28;20312;-71
2022/10/09 11:20:15;;;;;;;2.93;1.70;;;;;;;16.05;67.68;98656.63;5098237;28;20267;-71
2022/10/09 11:22:55;;;;;;;2.17;1.20;;;;;;;16.14;65.69;98646.03;5099944;28;20257;-73
2022/10/09 11:25:30;;;;;;;3.40;1.50;;;;;;;16.01;65.72;98641.84;5098197;28;20260;-71
2022/10/09 11:28:02;;;;;;;3.50;1.60;;;;;;;16.07;68.93;98651.19;5098045;28;20245;-71
2022/10/09 11:30:36;;;;;;;2.63;1.40;;;;;;;16.18;64.65;98631.47;5099749;28;20522;-71
2022/10/09 11:33:12;;;;;;;3.00;1.43;;;;;;;16.19;65.04;98633.16;5098045;28;20597;-71
2022/10/09 11:35:43;;;;;;;2.23;1.23;;;;;;;16.26;66.91;98634.34;5097963;28;20687;-71
2022/10/09 11:38:25;;;;;;;3.10;1.40;;;;;;;16.23;63.46;98621.28;5098774;28;20226;-72
2022/10/09 11:40:53;;;;;;;2.47;1.53;;;;;;;16.30;64.71;98609.13;5096301;28;20432;-71
2022/10/09 11:43:39;;;;;;;2.00;1.30;;;;;;;16.33;66.20;98616.84;5097451;28;20262;-72